createdAt,value
2023-02-19T00:00:01.105Z,24.59
2023-02-19T00:01:01.109Z,24.58
2023-02-19T00:02:01.134Z,24.61
2023-02-19T04:42:07.812Z,24.59
2023-02-19T04:43:07.853Z,24.57
2023-02-19T04:44:07.873Z,24.62
2023-02-19T04:45:07.907Z,24.60
2023-02-19T04:46:07.956Z,24.59
2023-02-19T04:47:07.967Z,24.56
2023-02-19T04:48:08.005Z,24.56
2023-02-19T04:49:08.038Z,24.57
2023-02-19T04:50:08.065Z,24.59
2023-02-19T09:46:17.852Z,24.36
2023-02-19T09:47:17.881Z,24.33
2023-02-19T09:48:17.927Z,24.33
2023-02-19T09:49:17.966Z,24.36
2023-02-19T09:50:18.013Z,24.36
2023-02-19T09:51:18.075Z,24.38
2023-02-19T09:52:18.122Z,24.39
2023-02-19T09:53:18.160Z,24.36
2023-02-19T09:54:18.199Z,24.35
2023-02-19T09:55:18.246Z,24.36
2023-02-19T09:56:18.282Z,24.37
2023-02-19T09:57:18.310Z,24.40
2023-02-19T09:58:18.353Z,24.37
2023-02-19T09:59:18.401Z,24.36
2023-02-19T10:00:18.434Z,24.40
2023-02-19T10:01:18.513Z,24.40
2023-02-19T10:02:18.504Z,24.35
2023-02-19T10:03:18.535Z,24.36
2023-02-19T10:04:18.564Z,24.39
2023-02-19T10:05:18.635Z,24.40
2023-02-19T10:06:18.709Z,24.42
2023-02-19T10:07:18.677Z,24.40
2023-02-19T10:08:18.745Z,24.39
2023-02-19T10:09:18.745Z,24.39
2023-02-19T10:10:18.796Z,24.40
2023-02-19T10:11:18.823Z,24.39
2023-02-19T10:12:18.842Z,24.35
2023-02-19T10:13:18.889Z,24.35
2023-02-19T10:14:18.920Z,24.30
2023-02-19T10:15:18.969Z,24.35
2023-02-19T10:16:18.995Z,24.30
2023-02-19T10:17:19.033Z,24.33
2023-02-19T10:18:19.070Z,24.33
2023-02-19T10:19:19.113Z,24.29
2023-02-19T10:20:19.184Z,24.26
2023-02-19T10:21:19.169Z,24.26
2023-02-19T10:22:19.198Z,24.26
2023-02-19T10:23:19.238Z,24.25
2023-02-19T10:24:19.355Z,24.25
2023-02-19T10:25:19.321Z,24.24
2023-02-19T10:26:19.343Z,24.28
2023-02-19T10:27:19.382Z,24.24
2023-02-19T10:28:19.417Z,24.24
2023-02-19T10:29:19.447Z,24.21
2023-02-19T10:30:20.088Z,24.22
2023-02-19T10:31:20.792Z,24.21
2023-02-19T10:32:19.646Z,24.23
2023-02-19T10:33:19.590Z,24.21
2023-02-19T10:34:19.633Z,24.18
2023-02-19T10:35:19.667Z,24.14
2023-02-19T10:36:19.701Z,24.19
2023-02-19T10:37:19.862Z,24.19
2023-02-19T10:38:19.769Z,24.11
2023-02-19T10:39:19.806Z,24.14
2023-02-19T10:40:19.824Z,24.14
2023-02-19T10:41:19.854Z,24.14
2023-02-19T10:42:19.886Z,24.13
2023-02-19T10:43:19.927Z,24.10
2023-02-19T10:44:19.969Z,24.10
2023-02-19T10:45:20.013Z,24.09
2023-02-19T10:46:20.073Z,24.06
2023-02-19T10:47:20.073Z,24.02
2023-02-19T10:48:20.119Z,24.06
2023-02-19T10:49:20.152Z,24.09
2023-02-19T10:50:20.194Z,24.06
2023-02-19T10:51:20.224Z,24.03
2023-02-19T10:52:20.290Z,23.98
2023-02-19T10:53:20.316Z,23.98
2023-02-19T10:54:20.378Z,23.98
2023-02-19T10:55:20.396Z,23.97
2023-02-19T10:56:20.429Z,23.92
2023-02-19T10:57:20.468Z,23.94
2023-02-19T10:58:20.519Z,23.92
2023-02-19T10:59:20.581Z,23.91
2023-02-19T11:00:20.616Z,23.91
2023-02-19T11:01:20.753Z,23.91
2023-02-19T11:02:20.694Z,23.89
2023-02-19T11:03:20.732Z,23.88
2023-02-19T11:04:20.818Z,23.88
2023-02-19T11:05:20.821Z,23.91
2023-02-19T11:06:20.867Z,23.86
2023-02-19T11:07:20.907Z,23.86
2023-02-19T11:08:20.958Z,23.82
2023-02-19T11:09:21.017Z,23.83
2023-02-19T11:10:21.073Z,23.79
2023-02-19T11:11:21.105Z,23.79
2023-02-19T11:12:21.137Z,23.78
2023-02-19T11:13:21.184Z,23.78
2023-02-19T11:14:21.222Z,23.74
2023-02-19T11:15:21.266Z,23.75
2023-02-19T11:16:21.335Z,23.72
2023-02-19T11:17:21.354Z,23.67
2023-02-19T11:18:21.399Z,23.69
2023-02-19T11:19:21.438Z,23.65
2023-02-19T11:20:21.500Z,23.68
2023-02-19T11:21:21.544Z,23.63
2023-02-19T11:22:21.608Z,23.63
2023-02-19T11:23:21.654Z,23.60
2023-02-19T11:24:21.705Z,23.61
2023-02-19T11:25:21.772Z,23.56
2023-02-19T11:26:21.803Z,23.60
2023-02-19T11:27:21.876Z,23.56
2023-02-19T11:28:21.990Z,23.56
2023-02-19T11:29:21.968Z,23.52
2023-02-19T11:30:22.137Z,23.52
2023-02-19T11:31:22.244Z,23.52
2023-02-19T11:32:22.311Z,23.52
2023-02-19T11:33:22.252Z,23.53
2023-02-19T11:34:22.274Z,23.51
2023-02-19T11:35:22.327Z,23.46
2023-02-19T11:36:23.107Z,23.41
2023-02-19T11:37:22.459Z,23.42
2023-02-19T11:38:22.497Z,23.41
2023-02-19T11:39:22.568Z,23.40
2023-02-19T11:40:22.619Z,23.34
2023-02-19T11:41:22.675Z,23.37
2023-02-19T11:42:22.804Z,23.34
2023-02-19T11:43:22.830Z,23.30
2023-02-19T11:44:22.883Z,23.30
2023-02-19T11:45:22.966Z,23.33
2023-02-19T11:46:23.046Z,23.26
2023-02-19T11:47:23.099Z,23.26
2023-02-19T11:48:24.074Z,23.26
2023-02-19T11:49:23.207Z,23.26
2023-02-19T11:50:23.287Z,23.23
2023-02-19T11:51:23.352Z,23.20
2023-02-19T11:52:23.428Z,23.19
2023-02-19T11:53:23.491Z,23.20
2023-02-19T11:54:23.554Z,23.19
2023-02-19T11:55:23.616Z,23.19
2023-02-19T11:56:23.694Z,23.19
2023-02-19T11:57:23.753Z,23.14
2023-02-19T11:58:23.804Z,23.16
2023-02-19T11:59:23.855Z,23.17
2023-02-19T12:00:23.990Z,23.11
2023-02-19T12:01:23.949Z,23.13
2023-02-19T12:02:24.149Z,23.13
2023-02-19T12:03:24.087Z,23.10
2023-02-19T12:04:24.139Z,23.10
2023-02-19T12:05:24.215Z,23.05
2023-02-19T12:06:24.224Z,23.08
2023-02-19T12:07:24.290Z,23.07
2023-02-19T12:08:24.330Z,23.00
2023-02-19T12:09:24.404Z,23.05
2023-02-19T12:10:24.430Z,23.07
2023-02-19T12:11:24.465Z,23.04
2023-02-19T12:12:24.545Z,23.04
2023-02-19T12:13:24.598Z,22.99
2023-02-19T12:14:24.808Z,23.06
2023-02-19T12:15:24.726Z,23.02
2023-02-19T12:16:24.805Z,22.99
2023-02-19T12:17:24.825Z,22.97
2023-02-19T12:18:24.874Z,22.96
2023-02-19T12:19:24.927Z,23.05
2023-02-19T12:20:25.015Z,22.96
2023-02-19T12:21:25.043Z,22.96
2023-02-19T12:22:25.088Z,22.99
2023-02-19T12:23:26.074Z,22.94
2023-02-19T12:24:25.233Z,22.96
2023-02-19T12:25:25.268Z,22.91
2023-02-19T12:26:25.302Z,22.91
2023-02-19T12:27:25.352Z,22.91
2023-02-19T12:28:25.424Z,22.94
2023-02-19T12:29:25.410Z,22.90
2023-02-19T12:30:25.472Z,22.93
2023-02-19T12:31:25.576Z,22.91
2023-02-19T12:32:25.518Z,22.94
2023-02-19T12:33:25.528Z,22.88
2023-02-19T12:34:25.565Z,22.88
2023-02-19T12:35:25.563Z,22.86
2023-02-19T12:36:25.591Z,22.86
2023-02-19T12:37:25.607Z,22.79
2023-02-19T12:38:25.613Z,22.80
2023-02-19T12:39:26.502Z,22.83
2023-02-19T12:40:25.628Z,22.83
2023-02-19T12:41:25.638Z,22.87
2023-02-19T12:42:25.641Z,22.84
2023-02-19T16:12:28.161Z,21.95
2023-02-19T16:14:28.163Z,21.95
2023-02-19T16:24:28.174Z,22.00
2023-02-19T16:54:27.815Z,22.16
2023-02-19T17:03:27.796Z,22.16
2023-02-19T17:04:27.797Z,22.18
2023-02-19T17:05:27.830Z,22.13
2023-02-19T17:06:27.810Z,22.18
2023-02-19T17:07:27.817Z,22.15
2023-02-19T17:08:27.824Z,22.21
2023-02-19T17:09:27.830Z,22.16
2023-02-19T17:10:27.848Z,22.19
2023-02-19T17:11:27.849Z,22.21
2023-02-19T17:12:27.890Z,22.24
2023-02-19T17:13:27.875Z,22.21
2023-02-19T17:14:27.884Z,22.24
2023-02-19T17:15:27.904Z,22.19
2023-02-19T17:16:27.992Z,22.21
2023-02-19T17:17:27.899Z,22.22
2023-02-19T17:18:27.938Z,22.25
2023-02-19T17:19:27.922Z,22.25
2023-02-19T17:20:27.936Z,22.21
2023-02-19T17:21:27.967Z,22.24
2023-02-19T17:22:27.947Z,22.24
2023-02-19T17:23:27.966Z,22.22
2023-02-19T17:24:27.965Z,22.22
2023-02-19T17:25:28.197Z,22.22
2023-02-19T17:26:28.020Z,22.21
2023-02-19T17:27:28.014Z,22.22
2023-02-19T17:28:28.038Z,22.24
2023-02-19T17:29:28.055Z,22.29
2023-02-19T17:30:28.144Z,22.29
2023-02-19T17:31:28.201Z,22.27
2023-02-19T17:32:28.181Z,22.29
2023-02-19T17:33:28.101Z,22.24
2023-02-19T17:34:28.109Z,22.29
2023-02-19T17:35:28.134Z,22.29
2023-02-19T17:36:28.128Z,22.25
2023-02-19T17:37:28.163Z,22.27
2023-02-19T17:38:28.165Z,22.25
2023-02-19T17:39:28.181Z,22.32
2023-02-19T17:40:33.044Z,22.27
2023-02-19T17:41:29.214Z,22.30
2023-02-19T17:42:28.210Z,22.25
2023-02-19T17:43:28.215Z,22.29
2023-02-19T17:44:29.200Z,22.29
2023-02-19T17:45:28.240Z,22.30
2023-02-19T17:46:28.239Z,22.31
2023-02-19T17:47:28.254Z,22.27
2023-02-19T17:50:28.283Z,22.36
2023-02-19T17:51:28.280Z,22.32
2023-02-19T17:52:28.277Z,22.34
2023-02-19T17:53:28.283Z,22.27
2023-02-19T17:54:28.292Z,22.33
2023-02-19T17:55:28.296Z,22.29
2023-02-19T17:56:28.324Z,22.27
2023-02-19T17:57:28.300Z,22.29
2023-02-19T17:58:28.303Z,22.33
2023-02-19T17:59:28.296Z,22.30
2023-02-19T18:00:28.314Z,22.34
2023-02-19T18:01:28.359Z,22.33
2023-02-19T18:02:28.317Z,22.36
2023-02-19T18:04:28.322Z,22.33
2023-02-19T18:05:28.324Z,22.33
2023-02-19T18:06:28.339Z,22.32
2023-02-19T18:07:28.314Z,22.33
2023-02-19T18:08:28.310Z,22.38
2023-02-19T18:09:28.318Z,22.33
2023-02-19T18:10:28.320Z,22.38
2023-02-19T18:29:28.447Z,22.42
2023-02-19T18:30:28.547Z,22.45
2023-02-19T18:31:28.533Z,22.42
2023-02-19T18:32:28.432Z,22.44
2023-02-19T18:33:28.444Z,22.44
2023-02-19T18:34:28.459Z,22.43
2023-02-19T18:35:28.448Z,22.45
2023-02-19T18:36:28.462Z,22.43
2023-02-19T18:37:28.461Z,22.47
2023-02-19T18:38:28.482Z,22.42
2023-02-19T18:39:28.485Z,22.46
2023-02-19T18:40:28.491Z,22.45
2023-02-19T18:41:28.493Z,22.42
2023-02-19T18:42:28.485Z,22.47
2023-02-19T18:43:28.493Z,22.47
2023-02-19T18:44:28.501Z,22.51
2023-02-19T18:45:28.515Z,22.44
2023-02-19T18:46:28.519Z,22.47
2023-02-19T18:47:28.537Z,22.48
2023-02-19T18:48:28.525Z,22.45
2023-02-19T18:49:28.533Z,22.47
2023-02-19T18:50:28.548Z,22.48
2023-02-19T18:51:28.555Z,22.47
2023-02-19T18:52:28.611Z,22.46
2023-02-19T18:53:30.414Z,22.46
2023-02-19T18:54:28.818Z,22.48
2023-02-19T18:55:29.717Z,22.47
2023-02-19T18:56:28.834Z,22.48
2023-02-19T18:57:28.840Z,22.50
2023-02-19T18:58:28.847Z,22.56
2023-02-19T18:59:28.861Z,22.57
2023-02-19T19:00:28.940Z,22.50
2023-02-19T19:01:28.921Z,22.48
2023-02-19T19:02:36.445Z,22.50
2023-02-19T19:04:28.920Z,22.53
2023-02-19T19:05:28.891Z,22.51
2023-02-19T19:06:28.886Z,22.50
2023-02-19T19:08:30.668Z,22.54
2023-02-19T19:09:28.896Z,22.57
2023-02-19T19:10:28.890Z,22.56
2023-02-19T19:11:28.949Z,22.47
2023-02-19T19:12:28.914Z,22.57
2023-02-19T19:13:28.890Z,22.51
2023-02-19T19:43:28.959Z,22.65
2023-02-19T19:44:28.981Z,22.65
2023-02-19T19:45:29.008Z,22.63
2023-02-19T19:46:28.974Z,22.63
2023-02-19T19:47:28.951Z,22.63
2023-02-19T19:48:28.958Z,22.68
2023-02-19T19:49:28.962Z,22.65
2023-02-19T19:50:28.975Z,22.71
2023-02-19T19:51:28.979Z,22.72
2023-02-19T19:52:28.992Z,22.71
2023-02-19T19:53:29.001Z,22.66
2023-02-19T19:54:29.013Z,22.65
2023-02-19T19:55:29.033Z,22.68
2023-02-19T19:56:29.050Z,22.68
2023-02-19T19:57:29.047Z,22.72
2023-02-19T19:58:29.056Z,22.65
2023-02-19T19:59:29.060Z,22.68
2023-02-19T20:00:29.149Z,22.72
2023-02-19T20:01:29.109Z,22.68
2023-02-19T20:02:29.296Z,22.68
2023-02-19T20:03:29.101Z,22.68
2023-02-19T20:04:29.099Z,22.71
2023-02-19T20:05:29.131Z,22.72
2023-02-19T20:06:29.122Z,22.71
2023-02-19T20:07:29.134Z,22.71
2023-02-19T20:08:29.139Z,22.75
2023-02-19T20:09:29.289Z,22.75
2023-02-19T20:10:29.158Z,22.69
2023-02-19T20:11:29.169Z,22.72
2023-02-19T20:12:29.169Z,22.75
2023-02-19T20:13:29.163Z,22.67
2023-02-19T20:14:29.169Z,22.74
2023-02-19T20:15:29.179Z,22.78
2023-02-19T20:16:29.244Z,22.74
2023-02-19T20:17:29.247Z,22.65
2023-02-19T20:18:29.225Z,22.77
2023-02-19T20:19:29.221Z,22.75
2023-02-19T20:20:29.226Z,22.78
2023-02-19T20:21:29.234Z,22.78
2023-02-19T20:22:29.246Z,22.80
2023-02-19T20:23:29.266Z,22.76
2023-02-19T20:24:29.263Z,22.74
2023-02-19T20:25:29.273Z,22.78
2023-02-19T20:26:29.282Z,22.81
2023-02-19T20:27:29.318Z,22.81
2023-02-19T20:28:29.383Z,22.77
2023-02-19T20:29:29.602Z,22.80
2023-02-19T20:30:29.562Z,22.77
2023-02-19T20:31:29.645Z,22.74
2023-02-19T20:32:29.640Z,22.80
2023-02-19T20:33:29.720Z,22.80
2023-02-19T20:34:29.772Z,22.75
2023-02-19T20:35:29.847Z,22.84
2023-02-19T20:36:29.922Z,22.78
2023-02-19T20:37:30.751Z,22.78
2023-02-19T20:38:30.003Z,22.77
2023-02-19T20:39:30.054Z,22.81
2023-02-19T20:40:30.758Z,22.81
2023-02-19T20:41:30.194Z,22.84
2023-02-19T20:42:30.264Z,22.80
2023-02-19T20:43:30.350Z,22.83
2023-02-19T20:44:30.425Z,22.78
2023-02-19T20:45:30.500Z,22.89
2023-02-19T20:46:30.572Z,22.80
2023-02-19T20:47:30.652Z,22.80
2023-02-19T20:48:30.715Z,22.81
2023-02-19T20:49:30.804Z,22.81
2023-02-19T20:50:30.945Z,22.81
2023-02-19T20:51:30.914Z,22.83
2023-02-19T20:52:30.993Z,22.87
2023-02-19T20:53:31.065Z,22.83
2023-02-19T20:54:31.124Z,22.83
2023-02-19T20:55:31.208Z,22.81
2023-02-19T20:56:31.275Z,22.83
2023-02-19T20:57:31.322Z,22.89
2023-02-19T20:58:31.392Z,22.86
2023-02-19T20:59:31.476Z,22.87
2023-02-19T21:00:31.551Z,22.86
2023-02-19T21:01:31.627Z,22.84
2023-02-19T21:02:31.720Z,22.81
2023-02-19T21:03:31.738Z,22.89
2023-02-19T21:04:31.804Z,22.87
2023-02-19T21:05:31.870Z,22.83
2023-02-19T21:06:31.934Z,22.86
2023-02-19T21:07:31.997Z,22.90
2023-02-19T21:08:32.067Z,22.89
2023-02-19T21:09:32.138Z,22.90
2023-02-19T21:10:32.278Z,22.90
2023-02-19T21:11:32.270Z,22.89
2023-02-19T21:12:32.355Z,22.90
2023-02-19T21:13:32.430Z,22.90
2023-02-19T21:14:32.516Z,22.86
2023-02-19T21:15:32.579Z,22.86
2023-02-19T21:16:32.659Z,22.86
2023-02-19T21:17:32.734Z,22.89
2023-02-19T21:18:32.806Z,22.89
2023-02-19T21:19:32.886Z,22.86
2023-02-19T21:20:32.945Z,22.89
2023-02-19T21:21:33.017Z,22.87
2023-02-19T21:22:33.093Z,22.92
2023-02-19T21:23:33.154Z,22.90
2023-02-19T21:24:33.240Z,22.89
2023-02-19T21:25:33.348Z,22.83
2023-02-19T21:26:33.385Z,22.93
2023-02-19T21:27:33.472Z,22.87
2023-02-19T21:28:33.540Z,22.89
2023-02-19T21:29:33.611Z,22.92
2023-02-19T21:30:33.721Z,22.86
2023-02-19T21:31:33.885Z,22.90
2023-02-19T21:32:33.837Z,22.87
2023-02-19T21:33:33.922Z,22.93
2023-02-19T21:34:34.055Z,22.90
2023-02-19T21:35:34.288Z,22.92
2023-02-19T21:36:34.132Z,22.95
2023-02-19T21:37:34.776Z,22.89
2023-02-19T21:38:35.277Z,22.93
2023-02-19T21:39:34.355Z,22.96
2023-02-19T21:40:34.777Z,22.87
2023-02-19T21:41:34.522Z,22.92
2023-02-19T21:42:34.585Z,22.96
2023-02-19T21:43:34.728Z,22.95
2023-02-19T21:44:34.751Z,22.90
2023-02-19T21:45:34.860Z,22.89
2023-02-19T21:46:34.920Z,22.89
2023-02-19T21:47:34.963Z,22.95
2023-02-19T21:48:35.046Z,22.95
2023-02-19T21:49:35.113Z,22.95
2023-02-19T21:50:35.202Z,22.92
2023-02-19T21:51:35.267Z,22.92
2023-02-19T21:52:35.348Z,22.95
2023-02-19T21:53:35.442Z,22.95
2023-02-19T21:54:35.506Z,22.93
2023-02-19T21:55:35.578Z,22.92
2023-02-19T21:56:36.532Z,22.93
2023-02-19T21:57:35.740Z,22.90
2023-02-19T21:58:35.814Z,22.90
2023-02-19T21:59:35.883Z,22.93
2023-02-19T22:00:35.966Z,22.92
2023-02-19T22:01:36.051Z,22.93
2023-02-19T22:02:36.138Z,22.93
2023-02-19T22:04:36.266Z,22.92
2023-02-19T22:05:36.405Z,22.96
2023-02-19T22:06:36.433Z,22.95
2023-02-19T22:07:36.541Z,22.96
2023-02-19T22:08:36.590Z,22.98
2023-02-19T22:09:36.665Z,22.98
2023-02-19T22:10:36.739Z,22.98
2023-02-19T22:11:36.813Z,22.99
2023-02-19T22:12:36.959Z,23.04
2023-02-19T22:13:36.969Z,22.99
2023-02-19T22:25:37.872Z,22.99
2023-02-19T22:26:37.929Z,22.99
2023-02-19T22:27:38.020Z,23.03
2023-02-19T22:28:38.102Z,23.04
2023-02-19T22:29:38.175Z,23.08
2023-02-19T22:30:38.324Z,23.05
2023-02-19T22:31:38.445Z,23.03
2023-02-19T22:32:38.549Z,23.09
2023-02-19T22:33:38.468Z,23.04
2023-02-19T22:34:38.558Z,23.07
2023-02-19T22:35:38.692Z,23.05
2023-02-19T22:36:38.713Z,23.09
2023-02-19T22:37:39.293Z,23.05
2023-02-19T22:38:38.909Z,23.08
2023-02-19T22:39:38.934Z,23.03
2023-02-19T22:40:39.794Z,23.05
2023-02-19T22:41:39.086Z,23.10
2023-02-19T22:42:39.156Z,23.11
